createdAt,value
2019-04-14T00:05:47.706Z,22.07
2019-04-14T00:08:33.001Z,23.23
2019-04-14T00:11:26.541Z,23.13
2019-04-14T00:14:11.800Z,23.10
2019-04-14T00:17:06.515Z,24.53
2019-04-14T00:19:52.406Z,26.37
2019-04-14T00:22:46.815Z,25.60
2019-04-14T00:25:41.212Z,25.97
2019-04-14T00:28:27.104Z,24.97
2019-04-14T00:31:21.645Z,22.87
2019-04-14T00:38:21.652Z,24.97
2019-04-14T00:45:32.198Z,25.30
2019-04-14T00:48:25.735Z,26.73
2019-04-14T00:51:11.279Z,26.30
2019-04-14T00:54:06.510Z,26.60
2019-04-14T00:56:51.937Z,25.70
2019-04-14T00:59:46.374Z,27.90
2019-04-14T01:02:31.838Z,26.07
2019-04-14T01:05:17.349Z,26.13
2019-04-14T01:08:10.539Z,26.37
2019-04-14T01:10:56.221Z,25.47
2019-04-14T01:13:50.741Z,26.50
2019-04-14T01:16:36.250Z,27.47
2019-04-14T01:19:21.983Z,26.47
2019-04-14T01:22:07.419Z,26.67
2019-04-14T01:24:51.809Z,25.87
2019-04-14T01:27:36.369Z,26.10
2019-04-14T01:30:30.616Z,32.95
2019-04-14T01:33:16.250Z,26.40
2019-04-14T01:36:01.740Z,25.10
2019-04-14T01:38:47.109Z,25.50
2019-04-14T01:41:32.517Z,24.53
2019-04-14T01:44:26.511Z,24.07
2019-04-14T01:47:11.658Z,23.97
2019-04-14T01:50:05.921Z,24.37
2019-04-14T01:56:18.751Z,23.47
2019-04-14T01:59:41.287Z,22.83
2019-04-14T02:02:35.773Z,22.73
2019-04-14T02:05:21.310Z,21.97
2019-04-14T02:08:06.587Z,23.63
2019-04-14T02:11:00.900Z,25.03
2019-04-14T02:13:55.078Z,25.47
2019-04-14T02:16:53.577Z,24.60
2019-04-14T02:19:34.967Z,25.70
2019-04-14T02:22:20.444Z,25.37
2019-04-14T02:25:14.276Z,26.17
2019-04-14T02:28:09.039Z,25.93
2019-04-14T02:31:03.419Z,25.47
2019-04-14T02:34:07.971Z,25.60
2019-04-14T02:36:58.493Z,24.17
2019-04-14T02:39:48.366Z,24.73
2019-04-14T02:45:19.474Z,25.50
2019-04-14T02:48:15.204Z,26.13
2019-04-14T02:51:27.271Z,24.87
2019-04-14T02:54:13.496Z,24.87
2019-04-14T02:57:03.523Z,25.60
2019-04-14T02:59:58.757Z,25.93
2019-04-14T03:05:27.044Z,26.43
2019-04-14T03:08:16.760Z,26.60
2019-04-14T03:11:03.047Z,26.23
2019-04-14T03:13:51.728Z,24.90
2019-04-14T03:17:14.517Z,26.93
2019-04-14T03:20:17.452Z,26.60
2019-04-14T03:22:55.658Z,26.27
2019-04-14T03:26:25.357Z,26.00
2019-04-14T03:29:55.329Z,25.47
2019-04-14T03:35:47.680Z,25.07
2019-04-14T03:37:50.382Z,26.80
2019-04-14T03:40:50.631Z,26.40
2019-04-14T03:46:25.411Z,25.83
2019-04-14T03:51:57.840Z,26.10
2019-04-14T03:54:36.686Z,25.77
2019-04-14T03:57:01.860Z,26.53
2019-04-14T03:59:47.717Z,26.10
2019-04-14T04:02:33.630Z,25.70
2019-04-14T04:05:28.026Z,26.70
2019-04-14T04:08:13.638Z,27.30
2019-04-14T04:10:59.771Z,26.00
2019-04-14T04:13:45.523Z,25.90
2019-04-14T04:16:57.812Z,26.17
2019-04-14T04:20:06.892Z,26.47
2019-04-14T04:23:16.298Z,25.87
2019-04-14T04:26:27.854Z,25.80
2019-04-14T04:29:49.059Z,25.53
2019-04-14T04:32:52.276Z,25.93
2019-04-14T04:35:41.466Z,26.53
2019-04-14T04:38:51.003Z,25.80
2019-04-14T04:41:53.667Z,26.07
2019-04-14T04:44:39.855Z,25.93
2019-04-14T04:47:25.226Z,26.50
2019-04-14T04:50:11.398Z,26.00
2019-04-14T04:52:56.303Z,27.13
2019-04-14T04:55:41.678Z,26.27
2019-04-14T04:58:35.647Z,26.63
2019-04-14T05:01:20.980Z,25.07
2019-04-14T05:04:15.424Z,25.27
2019-04-14T05:07:01.567Z,25.40
2019-04-14T05:13:12.559Z,26.97
2019-04-14T05:16:06.980Z,26.43
2019-04-14T05:19:12.310Z,25.33
2019-04-14T05:21:47.400Z,25.73
2019-04-14T05:24:41.790Z,26.03
2019-04-14T05:27:36.449Z,26.00
2019-04-14T05:30:21.866Z,25.00
2019-04-14T05:33:07.566Z,26.43
2019-04-14T05:35:51.746Z,27.13
2019-04-14T05:38:45.363Z,26.53
2019-04-14T05:41:30.875Z,26.50
2019-04-14T05:44:25.397Z,26.97
2019-04-14T05:47:10.999Z,25.90
2019-04-14T05:49:57.671Z,26.03
2019-04-14T05:52:51.544Z,26.40
2019-04-14T05:55:37.279Z,25.43
2019-04-14T05:58:10.463Z,26.83
2019-04-14T06:01:04.751Z,25.83
2019-04-14T06:03:58.236Z,26.93
2019-04-14T06:06:42.839Z,25.83
2019-04-14T06:09:27.695Z,26.10
2019-04-14T06:12:12.383Z,27.83
2019-04-14T06:14:56.971Z,26.43
2019-04-14T06:17:42.167Z,29.40
2019-04-14T06:20:26.670Z,27.43
2019-04-14T06:23:11.329Z,26.50
2019-04-14T06:25:55.796Z,26.80
2019-04-14T06:28:49.339Z,27.80
2019-04-14T06:35:30.851Z,26.53
2019-04-14T06:38:28.375Z,26.17
2019-04-14T06:41:15.846Z,25.93
2019-04-14T06:44:01.077Z,33.00
2019-04-14T06:46:45.607Z,36.20
2019-04-14T06:49:30.178Z,28.70
2019-04-14T06:52:14.806Z,26.43
2019-04-14T06:55:08.207Z,28.60
2019-04-14T06:57:52.986Z,28.60
2019-04-14T07:00:37.853Z,29.77
2019-04-14T07:03:22.143Z,27.63
2019-04-14T07:06:06.795Z,25.93
2019-04-14T07:08:51.759Z,25.67
2019-04-14T07:11:36.624Z,26.73
2019-04-14T07:14:21.432Z,27.17
2019-04-14T07:17:05.878Z,25.70
2019-04-14T07:20:01.250Z,26.63
2019-04-14T07:22:45.345Z,27.03
2019-04-14T07:25:30.211Z,25.67
2019-04-14T07:28:14.708Z,25.63
2019-04-14T07:31:18.512Z,26.67
2019-04-14T07:38:04.759Z,31.60
2019-04-14T07:41:11.759Z,34.77
2019-04-14T07:47:42.930Z,25.87
2019-04-14T07:50:55.221Z,25.63
2019-04-14T07:53:58.649Z,23.90
2019-04-14T07:57:00.387Z,23.97
2019-04-14T08:00:09.126Z,25.03
2019-04-14T08:03:13.323Z,22.97
2019-04-14T08:06:16.211Z,23.57
2019-04-14T08:09:00.826Z,23.27
2019-04-14T08:11:46.480Z,23.63
2019-04-14T08:14:40.040Z,24.17
2019-04-14T08:17:24.987Z,23.80
2019-04-14T08:20:27.419Z,26.13
2019-04-14T08:23:05.055Z,24.33
2019-04-14T08:25:49.311Z,24.47
2019-04-14T08:28:33.503Z,24.30
2019-04-14T08:31:18.203Z,26.40
2019-04-14T08:34:02.758Z,24.33
2019-04-14T08:36:47.604Z,24.30
2019-04-14T08:39:32.232Z,24.50
2019-04-14T08:42:38.721Z,24.37
2019-04-14T08:46:07.783Z,25.77
2019-04-14T08:48:59.923Z,25.97
2019-04-14T08:52:26.641Z,24.60
2019-04-14T08:55:36.410Z,24.93
2019-04-14T08:58:39.995Z,24.63
2019-04-14T09:02:09.488Z,25.03
2019-04-14T09:05:12.932Z,24.33
2019-04-14T09:08:07.103Z,26.17
2019-04-14T09:11:08.778Z,25.67
2019-04-14T09:13:53.387Z,24.20
2019-04-14T09:16:37.527Z,25.30
2019-04-14T09:19:30.831Z,24.03
2019-04-14T09:22:15.243Z,25.43
2019-04-14T09:24:59.864Z,24.67
2019-04-14T09:27:43.995Z,24.57
2019-04-14T09:30:37.792Z,24.43
2019-04-14T09:33:22.814Z,25.00
2019-04-14T09:36:07.294Z,25.43
2019-04-14T09:38:51.931Z,24.73
2019-04-14T09:41:36.950Z,25.43
2019-04-14T09:44:21.513Z,24.70
2019-04-14T09:47:06.457Z,24.77
2019-04-14T09:49:51.489Z,25.13
2019-04-14T09:52:35.959Z,24.67
2019-04-14T09:55:23.352Z,23.37
2019-04-14T09:58:08.473Z,24.23
2019-04-14T10:00:53.283Z,25.40
2019-04-14T10:03:37.643Z,25.73
2019-04-14T10:06:31.091Z,23.20
2019-04-14T10:09:15.562Z,24.63
2019-04-14T10:11:59.986Z,25.63
2019-04-14T10:14:53.444Z,25.80
2019-04-14T10:17:38.259Z,25.17
2019-04-14T10:20:22.789Z,25.93
2019-04-14T10:23:07.284Z,26.10
2019-04-14T10:25:51.991Z,25.50
2019-04-14T10:28:36.411Z,25.63
2019-04-14T10:31:29.869Z,26.13
2019-04-14T10:34:14.371Z,26.57
2019-04-14T10:36:59.171Z,24.27
2019-04-14T10:39:43.621Z,25.13
2019-04-14T10:42:28.316Z,25.67
2019-04-14T10:45:13.323Z,25.60
2019-04-14T10:48:08.392Z,25.60
2019-04-14T10:51:02.376Z,25.93
2019-04-14T10:53:47.031Z,24.77
2019-04-14T10:56:31.717Z,27.23
2019-04-14T10:59:15.979Z,26.83
2019-04-14T11:02:00.933Z,27.47
2019-04-14T11:04:45.164Z,25.50
2019-04-14T11:07:38.485Z,27.23
2019-04-14T11:10:23.135Z,28.83
2019-04-14T11:13:08.212Z,27.20
2019-04-14T11:15:52.841Z,25.07
2019-04-14T11:18:37.607Z,27.83
2019-04-14T11:21:22.479Z,26.63
2019-04-14T11:24:07.401Z,28.60
2019-04-14T11:26:51.780Z,27.23
2019-04-14T11:29:36.596Z,27.40
2019-04-14T11:32:42.971Z,28.13
2019-04-14T11:36:01.291Z,30.90
2019-04-14T11:39:10.427Z,25.87
2019-04-14T11:42:04.312Z,27.43
2019-04-14T11:44:48.906Z,30.43
2019-04-14T11:47:33.608Z,27.33
2019-04-14T11:50:17.748Z,27.37
2019-04-14T11:53:11.556Z,25.23
2019-04-14T11:55:55.799Z,29.05
2019-04-14T11:58:40.475Z,26.20
2019-04-14T12:01:44.102Z,25.17
2019-04-14T12:04:51.584Z,27.13
2019-04-14T12:10:42.602Z,26.87
2019-04-14T12:13:27.188Z,25.73
2019-04-14T12:16:11.748Z,25.63
2019-04-14T12:18:56.744Z,25.50
2019-04-14T12:21:41.707Z,25.80
2019-04-14T12:24:26.952Z,25.63
2019-04-14T12:27:11.766Z,25.87
2019-04-14T12:29:56.714Z,25.53
2019-04-14T12:32:50.462Z,25.97
2019-04-14T12:35:35.076Z,24.53
2019-04-14T12:38:19.484Z,24.90
2019-04-14T12:41:17.714Z,24.23
2019-04-14T12:51:10.835Z,23.97
2019-04-14T12:53:55.796Z,23.43
2019-04-14T12:56:43.542Z,22.93
2019-04-14T12:59:28.145Z,23.07
2019-04-14T13:02:18.930Z,22.90
2019-04-14T13:05:15.924Z,22.17
2019-04-14T13:08:15.835Z,20.87
2019-04-14T13:11:00.367Z,20.77
2019-04-14T13:13:45.113Z,19.60
2019-04-14T13:16:29.680Z,19.70
2019-04-14T13:19:14.699Z,19.30
2019-04-14T13:21:58.998Z,18.83
2019-04-14T13:24:43.702Z,19.17
2019-04-14T13:27:28.099Z,17.40
2019-04-14T13:30:26.639Z,17.57
2019-04-14T13:33:28.124Z,17.27
2019-04-14T13:36:21.255Z,15.73
2019-04-14T13:39:06.595Z,16.63
2019-04-14T13:42:00.358Z,15.83
2019-04-14T13:44:44.735Z,18.43
2019-04-14T13:47:28.939Z,15.63
2019-04-14T13:50:22.478Z,14.97
2019-04-14T13:53:07.561Z,15.80
2019-04-14T13:55:52.136Z,16.80
2019-04-14T13:58:40.371Z,14.23
2019-04-14T14:01:22.863Z,18.47
2019-04-14T14:04:07.781Z,16.97
2019-04-14T14:06:52.517Z,16.67
2019-04-14T14:09:37.719Z,14.97
2019-04-14T14:19:56.183Z,17.00
2019-04-14T14:24:00.916Z,15.63
2019-04-14T14:26:46.534Z,15.93
2019-04-14T14:29:41.646Z,16.20
2019-04-14T14:32:32.383Z,15.73
2019-04-14T14:35:26.091Z,16.53
2019-04-14T14:38:10.928Z,15.77
2019-04-14T14:40:57.089Z,15.00
2019-04-14T14:43:42.015Z,15.17
2019-04-14T14:46:51.647Z,15.77
2019-04-14T14:49:55.379Z,15.37
2019-04-14T14:52:57.803Z,16.33
2019-04-14T14:55:42.273Z,15.50
2019-04-14T14:58:27.207Z,15.47
2019-04-14T15:01:12.519Z,15.13
2019-04-14T15:03:56.814Z,15.00
2019-04-14T15:06:41.665Z,14.97
2019-04-14T15:09:26.524Z,15.97
2019-04-14T15:12:11.127Z,15.53
2019-04-14T15:14:56.167Z,16.00
2019-04-14T15:17:40.548Z,15.60
2019-04-14T15:20:25.263Z,15.10
2019-04-14T15:23:09.892Z,14.17
2019-04-14T15:26:03.252Z,14.17
2019-04-14T15:28:47.766Z,14.37
2019-04-14T15:31:32.039Z,13.63
2019-04-14T15:34:25.502Z,14.23
2019-04-14T15:37:10.609Z,14.63
2019-04-14T15:40:04.488Z,14.00
2019-04-14T15:42:49.063Z,14.27
2019-04-14T15:45:33.543Z,14.60
2019-04-14T15:48:18.405Z,14.50
2019-04-14T15:51:03.623Z,13.97
2019-04-14T15:53:47.947Z,14.70
2019-04-14T15:56:51.837Z,14.27
2019-04-14T15:59:55.043Z,14.17
2019-04-14T16:06:38.505Z,14.67
2019-04-14T16:10:04.180Z,15.63
2019-04-14T16:12:56.720Z,15.53
2019-04-14T16:15:48.251Z,14.87
2019-04-14T16:19:02.387Z,14.13
2019-04-14T16:22:05.378Z,13.97
2019-04-14T16:24:49.929Z,14.27
2019-04-14T16:28:04.220Z,12.47
2019-04-14T16:31:30.856Z,12.00
2019-04-14T16:34:34.588Z,12.27
2019-04-14T16:37:19.423Z,12.53
2019-04-14T16:40:03.930Z,12.83
2019-04-14T16:42:58.743Z,12.50
2019-04-14T16:45:43.138Z,12.93
2019-04-14T16:48:27.873Z,12.93
2019-04-14T16:51:18.161Z,11.60
2019-04-14T16:54:08.911Z,11.47
2019-04-14T16:57:12.649Z,12.10
2019-04-14T16:59:56.990Z,11.57
2019-04-14T17:02:54.059Z,11.73
2019-04-14T17:05:47.948Z,11.90
2019-04-14T17:08:32.766Z,12.37
2019-04-14T17:11:16.869Z,12.43
2019-04-14T17:17:57.080Z,11.60
2019-04-14T17:21:01.029Z,11.47
2019-04-14T17:24:15.955Z,11.73
2019-04-14T17:27:17.021Z,11.20
2019-04-14T17:30:20.863Z,11.17
2019-04-14T17:33:23.996Z,11.73
2019-04-14T17:36:27.225Z,10.97
2019-04-14T17:39:15.031Z,11.93
2019-04-14T17:45:59.377Z,11.67
2019-04-14T17:49:20.231Z,12.33
2019-04-14T17:52:29.253Z,12.23
2019-04-14T17:55:32.723Z,11.07
2019-04-14T17:58:25.132Z,11.73
2019-04-14T18:01:50.423Z,11.40
2019-04-14T18:08:05.674Z,11.93
2019-04-14T18:10:58.259Z,11.73
2019-04-14T18:14:01.686Z,12.27
2019-04-14T18:17:02.711Z,12.07
2019-04-14T18:19:50.323Z,12.47
2019-04-14T18:22:35.367Z,12.97
2019-04-14T18:25:19.914Z,12.83
2019-04-14T18:28:26.442Z,12.30
2019-04-14T18:34:50.851Z,13.17
2019-04-14T18:38:14.490Z,14.23
2019-04-14T18:41:35.040Z,12.30
2019-04-14T18:44:50.423Z,12.20
2019-04-14T18:48:10.896Z,12.33
2019-04-14T18:51:06.449Z,14.20
2019-04-14T18:53:54.719Z,13.73
2019-04-14T18:56:49.059Z,14.20
2019-04-14T18:59:37.478Z,14.00
2019-04-14T19:02:22.126Z,13.87
2019-04-14T19:05:07.432Z,14.63
2019-04-14T19:08:00.757Z,15.53
2019-04-14T19:10:49.566Z,14.03
2019-04-14T19:13:55.607Z,13.73
2019-04-14T19:16:43.423Z,13.07
2019-04-14T19:19:27.700Z,13.20
2019-04-14T19:22:12.927Z,13.77
2019-04-14T19:25:07.953Z,12.57
2019-04-14T19:27:44.366Z,12.97
2019-04-14T19:30:28.769Z,13.17
2019-04-14T19:33:13.821Z,13.27
2019-04-14T19:35:58.792Z,12.80
2019-04-14T19:38:43.340Z,13.20
2019-04-14T19:41:28.214Z,12.77
2019-04-14T19:44:13.146Z,12.40
2019-04-14T19:46:58.004Z,12.93
2019-04-14T19:49:42.166Z,13.40
2019-04-14T19:52:26.505Z,13.00
2019-04-14T19:55:20.828Z,14.30
2019-04-14T19:58:05.255Z,14.97
2019-04-14T20:00:58.775Z,13.50
2019-04-14T20:03:43.284Z,13.27
2019-04-14T20:06:28.542Z,12.40
2019-04-14T20:09:12.827Z,12.47
2019-04-14T20:11:57.560Z,13.13
2019-04-14T20:14:42.667Z,13.13
2019-04-14T20:21:23.181Z,12.13
2019-04-14T20:28:03.339Z,12.37
2019-04-14T20:34:16.151Z,13.13
2019-04-14T20:37:00.892Z,12.10
2019-04-14T20:39:45.972Z,11.47
2019-04-14T20:42:31.012Z,11.33
2019-04-14T20:45:15.708Z,11.80
2019-04-14T20:48:00.297Z,11.10
2019-04-14T20:50:44.969Z,10.67
2019-04-14T20:53:29.630Z,10.03
2019-04-14T20:56:14.139Z,10.03
2019-04-14T20:59:07.668Z,9.90
2019-04-14T21:01:57.864Z,10.40
2019-04-14T21:08:25.995Z,9.60
2019-04-14T21:11:38.200Z,8.80
2019-04-14T21:14:28.891Z,10.73
2019-04-14T21:17:44.983Z,9.83
2019-04-14T21:21:05.744Z,8.97
2019-04-14T21:24:01.723Z,10.80
2019-04-14T21:27:05.680Z,11.70
2019-04-14T21:30:09.149Z,10.43
2019-04-14T21:36:14.490Z,10.17
2019-04-14T21:39:18.338Z,10.90
2019-04-14T21:42:02.735Z,10.33
2019-04-14T21:44:47.679Z,10.93
2019-04-14T21:47:32.262Z,10.47
2019-04-14T21:50:17.159Z,11.30
2019-04-14T21:53:02.087Z,10.40
2019-04-14T21:55:47.066Z,10.13
2019-04-14T21:59:03.313Z,11.23
2019-04-14T22:02:25.867Z,10.23
2019-04-14T22:05:49.918Z,10.87
2019-04-14T22:08:53.101Z,11.23
2019-04-14T22:11:38.772Z,11.17
2019-04-14T22:14:23.145Z,10.57
2019-04-14T22:17:16.915Z,10.30
2019-04-14T22:20:02.200Z,11.50
2019-04-14T22:22:47.904Z,10.30
2019-04-14T22:25:32.183Z,10.80
2019-04-14T22:28:16.811Z,10.90
2019-04-14T22:31:09.965Z,10.80
2019-04-14T22:33:54.575Z,9.67
2019-04-14T22:36:39.514Z,9.77
2019-04-14T22:39:24.501Z,10.10
2019-04-14T22:42:09.319Z,9.70
2019-04-14T22:44:53.753Z,10.27
2019-04-14T22:47:38.643Z,9.10
2019-04-14T22:50:23.431Z,9.70
2019-04-14T22:53:08.337Z,9.63
2019-04-14T22:55:53.031Z,9.53
2019-04-14T22:58:37.982Z,9.73
2019-04-14T23:01:26.356Z,8.93
2019-04-14T23:04:29.831Z,8.77
2019-04-14T23:07:33.012Z,9.10
2019-04-14T23:10:56.355Z,9.77
2019-04-14T23:17:34.709Z,8.13
2019-04-14T23:20:52.864Z,9.10
2019-04-14T23:24:02.683Z,9.37
2019-04-14T23:26:52.701Z,9.20
2019-04-14T23:29:34.190Z,9.30
2019-04-14T23:32:18.907Z,9.17
2019-04-14T23:35:03.313Z,8.70
2019-04-14T23:37:47.967Z,8.40
2019-04-14T23:40:41.312Z,9.40
2019-04-14T23:43:26.082Z,8.63
2019-04-14T23:46:10.876Z,8.73
2019-04-14T23:48:56.148Z,9.13
2019-04-14T23:51:49.951Z,8.90
2019-04-14T23:54:34.272Z,9.60
2019-04-14T23:57:19.083Z,9.37
